Hauptseite
METAR-TAF:

METAR-TAF

Flughäfen :

Flughafen Rouen

Rouen, Frankreich

Breite: 49-23N, Länge: 001-11E, Höhe: 157 m

Beobachtung

Neuester Wetterbericht von vor 26 Minuten, um 05:30 UTC
Wind 5 kt aus Südost
Temperatur 4°C
Luftfeuchtigkeit 100%
Luftdruck 1009 hPa
Sichtweite: 4500 m
Geschlossene Wolkendecke in der Höhe von 3500 ft
feuchter Dunst

METAR: LFOP 170530Z AUTO 13005KT 4500 BR OVC035 04/04 Q1009

Zeit: 06:56 (05:56 UTC)

Prognose

Neuester Wetterbericht von vor 56 Minuten, um 05:00 UTC
Gültige Prognose vom 17 um 06 UTC bis 18 um 06 UTC
Wind 3 kt aus unterschiedlichen Richtungen
Sichtweite: 4000 m
Geschlossene Wolkendecke in der Höhe von 3000 ft
feuchter Dunst
Zeitweise
vom 17 um 06 UTC bis 17 um 09 UTC
Sichtweite: 2000 m
Übergehend zu
vom 17 um 10 UTC bis 17 um 12 UTC
Sichtweite 10 km oder mehr

TAF: LFOP 170500Z 1706/1806 VRB03KT 4000 BR OVC030 TEMPO 1706/1709 2000 BECMG 1710/1712 9999 NSW

Wetterbeobachtungen und Prognosen von mehr als 4000 Flughäfen (METAR und TAF Bericht).

Die verfügbaren Stationen werden durch gelbe und rote Markierungen auf der Karte dargestellt.

Führen Sie die Maus auf sie, um den Namen der Station zu sehen.

Darauf klicken, um die Beobachtung von Wetterbeobachtungen und Prognosen zu sehen.

Um die Karte zu ändern : klicken Sie auf den grünen Tasten mit einem schwarzen Kreuz Zum Vergrößern, auf den grünen Button mit einem Gedankenstrich zu verkleinern, oder auf die grünen Pfeile für benachbarte Karten.


METAR-TAF: